Terminal Aerodrome Forecast
Issued by NWS Bismarck, ND

Home | Current Version | Previous Version | Graphics & Text | Print | Product List | Glossary On
Versions: 1 2 3 4 5 6 7 8 9 10 11 12 13 14 15 16 17
009
FTUS43 KBIS 202122 CCA
TAFISN
TAF COR
KISN 202122Z 2021/2118 20006KT P6SM SKC
     FM210300 27009KT P6SM SCT250
     FM210500 28016G24KT P6SM SCT250 WS020/29040KT
     FM211700 27019G28KT P6SM SCT080 WS007/27020KT
      AMD NOT SKED=

USA.gov is the U.S. government's official web portal to all federal, state and local government web resources and services.